sensor_id;sensor_type;location;lat;lon;timestamp;pressure;altitude;pressure_sealevel;temperature;humidity
60099;BME280;62818;49.394;8.686;2023-05-19T00:00:58;100965.56;;;12.81;55.96
60099;BME280;62818;49.394;8.686;2023-05-19T00:01:59;100970.88;;;12.81;55.66
60099;BME280;62818;49.394;8.686;2023-05-19T00:02:59;100969.59;;;12.77;56.00
60099;BME280;62818;49.394;8.686;2023-05-19T00:04:02;100962.25;;;12.79;55.98
60099;BME280;62818;49.394;8.686;2023-05-19T00:05:04;100957.41;;;12.83;55.65
60099;BME280;62818;49.394;8.686;2023-05-19T00:06:05;100960.59;;;12.78;55.72
60099;BME280;62818;49.394;8.686;2023-05-19T00:07:10;100968.75;;;12.77;56.03
60099;BME280;62818;49.394;8.686;2023-05-19T00:08:10;100965.44;;;12.75;55.51
60099;BME280;62818;49.394;8.686;2023-05-19T00:09:12;100961.94;;;12.74;55.95
60099;BME280;62818;49.394;8.686;2023-05-19T00:10:13;100962.28;;;12.71;55.94
60099;BME280;62818;49.394;8.686;2023-05-19T00:11:14;100955.97;;;12.72;55.58
60099;BME280;62818;49.394;8.686;2023-05-19T00:12:14;100958.94;;;12.77;55.65
60099;BME280;62818;49.394;8.686;2023-05-19T00:13:15;100953.50;;;12.71;55.68
60099;BME280;62818;49.394;8.686;2023-05-19T00:14:16;100954.47;;;12.78;55.20
60099;BME280;62818;49.394;8.686;2023-05-19T00:15:16;100951.13;;;12.76;55.22
60099;BME280;62818;49.394;8.686;2023-05-19T00:16:17;100954.97;;;12.73;55.65
60099;BME280;62818;49.394;8.686;2023-05-19T00:17:18;100961.28;;;12.72;55.79
60099;BME280;62818;49.394;8.686;2023-05-19T00:18:19;100955.97;;;12.72;55.53
60099;BME280;62818;49.394;8.686;2023-05-19T00:19:19;100946.16;;;12.73;55.45
60099;BME280;62818;49.394;8.686;2023-05-19T00:20:21;100951.00;;;12.69;55.67
60099;BME280;62818;49.394;8.686;2023-05-19T00:21:21;100951.00;;;12.69;55.63
60099;BME280;62818;49.394;8.686;2023-05-19T00:22:21;100954.03;;;12.66;55.74
60099;BME280;62818;49.394;8.686;2023-05-19T00:23:22;100951.69;;;12.63;56.09
60099;BME280;62818;49.394;8.686;2023-05-19T00:24:22;100954.19;;;12.64;55.78
60099;BME280;62818;49.394;8.686;2023-05-19T00:25:23;100952.19;;;12.67;55.83
60099;BME280;62818;49.394;8.686;2023-05-19T00:26:23;100951.94;;;12.76;55.87
60099;BME280;62818;49.394;8.686;2023-05-19T00:27:25;100949.88;;;12.63;55.63
60099;BME280;62818;49.394;8.686;2023-05-19T00:28:26;100951.88;;;12.61;55.85
60099;BME280;62818;49.394;8.686;2023-05-19T00:29:27;100950.06;;;12.62;55.77
60099;BME280;62818;49.394;8.686;2023-05-19T00:30:30;100950.41;;;12.59;55.86
60099;BME280;62818;49.394;8.686;2023-05-19T00:31:31;100954.19;;;12.64;55.99
60099;BME280;62818;49.394;8.686;2023-05-19T00:32:33;100948.72;;;12.58;56.07
60099;BME280;62818;49.394;8.686;2023-05-19T00:33:34;100959.50;;;12.64;56.00
60099;BME280;62818;49.394;8.686;2023-05-19T00:34:34;100954.34;;;12.63;55.67
60099;BME280;62818;49.394;8.686;2023-05-19T00:35:34;100955.06;;;12.57;55.71
60099;BME280;62818;49.394;8.686;2023-05-19T00:36:35;100964.34;;;12.61;55.72
60099;BME280;62818;49.394;8.686;2023-05-19T00:37:35;100958.75;;;12.48;56.32
60099;BME280;62818;49.394;8.686;2023-05-19T00:38:36;100959.22;;;12.51;56.18
60099;BME280;62818;49.394;8.686;2023-05-19T00:39:36;100959.88;;;12.53;56.16
60099;BME280;62818;49.394;8.686;2023-05-19T00:40:37;100954.41;;;12.55;55.92
60099;BME280;62818;49.394;8.686;2023-05-19T00:41:37;100955.72;;;12.59;55.69
60099;BME280;62818;49.394;8.686;2023-05-19T00:42:38;100959.38;;;12.58;55.54
60099;BME280;62818;49.394;8.686;2023-05-19T00:43:39;100962.03;;;12.58;55.97
60099;BME280;62818;49.394;8.686;2023-05-19T00:44:40;100951.09;;;12.53;56.27
60099;BME280;62818;49.394;8.686;2023-05-19T00:45:41;100954.03;;;12.58;56.05
60099;BME280;62818;49.394;8.686;2023-05-19T00:46:41;100965.19;;;12.53;55.53
60099;BME280;62818;49.394;8.686;2023-05-19T00:47:42;100962.78;;;12.44;56.25
60099;BME280;62818;49.394;8.686;2023-05-19T00:48:42;100961.75;;;12.45;56.20
60099;BME280;62818;49.394;8.686;2023-05-19T00:49:44;100956.09;;;12.48;55.61
60099;BME280;62818;49.394;8.686;2023-05-19T00:50:44;100965.94;;;12.39;56.54
60099;BME280;62818;49.394;8.686;2023-05-19T00:51:45;100957.28;;;12.45;56.41
60099;BME280;62818;49.394;8.686;2023-05-19T00:52:46;100951.78;;;12.47;56.04
60099;BME280;62818;49.394;8.686;2023-05-19T00:53:46;100956.63;;;12.43;55.94
60099;BME280;62818;49.394;8.686;2023-05-19T00:54:50;100943.50;;;12.42;56.16
60099;BME280;62818;49.394;8.686;2023-05-19T00:55:51;100947.66;;;12.44;56.12
60099;BME280;62818;49.394;8.686;2023-05-19T00:56:52;100953.97;;;12.43;56.08
60099;BME280;62818;49.394;8.686;2023-05-19T00:57:57;100950.66;;;12.41;55.95
60099;BME280;62818;49.394;8.686;2023-05-19T00:58:57;100949.81;;;12.41;56.23
60099;BME280;62818;49.394;8.686;2023-05-19T00:59:58;100952.84;;;12.38;56.37
60099;BME280;62818;49.394;8.686;2023-05-19T01:00:59;100953.78;;;12.45;56.03
60099;BME280;62818;49.394;8.686;2023-05-19T01:02:03;100948.47;;;12.45;55.80
60099;BME280;62818;49.394;8.686;2023-05-19T01:03:04;100953.78;;;12.45;55.97
60099;BME280;62818;49.394;8.686;2023-05-19T01:04:10;100953.97;;;12.43;56.24
60099;BME280;62818;49.394;8.686;2023-05-19T01:05:10;100949.81;;;12.49;56.34
60099;BME280;62818;49.394;8.686;2023-05-19T01:06:11;100943.97;;;12.45;56.01
60099;BME280;62818;49.394;8.686;2023-05-19T01:07:12;100944.13;;;12.52;55.32
60099;BME280;62818;49.394;8.686;2023-05-19T01:08:12;100942.63;;;12.49;55.61
60099;BME280;62818;49.394;8.686;2023-05-19T01:09:13;100942.94;;;12.54;55.39
60099;BME280;62818;49.394;8.686;2023-05-19T01:10:13;100936.78;;;12.54;55.40
60099;BME280;62818;49.394;8.686;2023-05-19T01:11:16;100940.47;;;12.53;55.25
60099;BME280;62818;49.394;8.686;2023-05-19T01:12:17;100940.81;;;12.50;55.19
60099;BME280;62818;49.394;8.686;2023-05-19T01:13:17;100931.59;;;12.60;55.09
60099;BME280;62818;49.394;8.686;2023-05-19T01:14:18;100931.13;;;12.57;55.14
60099;BME280;62818;49.394;8.686;2023-05-19T01:15:19;100926.16;;;12.54;55.17
60099;BME280;62818;49.394;8.686;2023-05-19T01:17:48;100918.03;;;12.55;55.21
60099;BME280;62818;49.394;8.686;2023-05-19T01:20:29;100920.16;;;12.60;55.09
60099;BME280;62818;49.394;8.686;2023-05-19T01:21:47;100917.19;;;12.55;55.39
60099;BME280;62818;49.394;8.686;2023-05-19T01:29:42;100919.19;;;12.53;55.29
60099;BME280;62818;49.394;8.686;2023-05-19T01:30:50;100924.31;;;12.54;54.93
60099;BME280;62818;49.394;8.686;2023-05-19T01:31:54;100922.13;;;12.58;54.69
60099;BME280;62818;49.394;8.686;2023-05-19T01:32:59;100919.78;;;12.63;54.69
60099;BME280;62818;49.394;8.686;2023-05-19T01:34:02;100915.63;;;12.60;54.55
60099;BME280;62818;49.394;8.686;2023-05-19T01:35:03;100919.31;;;12.59;54.51
60099;BME280;62818;49.394;8.686;2023-05-19T01:36:05;100916.13;;;12.64;54.58
60099;BME280;62818;49.394;8.686;2023-05-19T01:37:07;100920.31;;;12.58;54.75
60099;BME280;62818;49.394;8.686;2023-05-19T01:38:09;100916.00;;;12.57;54.82
60099;BME280;62818;49.394;8.686;2023-05-19T01:39:10;100918.47;;;12.59;54.72
60099;BME280;62818;49.394;8.686;2023-05-19T01:40:12;100912.34;;;12.58;54.85
60099;BME280;62818;49.394;8.686;2023-05-19T01:41:13;100915.19;;;12.57;54.88
60099;BME280;62818;49.394;8.686;2023-05-19T01:42:15;100910.50;;;12.59;54.31
60099;BME280;62818;49.394;8.686;2023-05-19T01:43:18;100915.50;;;12.62;54.28
60099;BME280;62818;49.394;8.686;2023-05-19T01:44:20;100914.53;;;12.55;54.72
60099;BME280;62818;49.394;8.686;2023-05-19T01:45:22;100922.66;;;12.53;54.83
60099;BME280;62818;49.394;8.686;2023-05-19T01:46:24;100923.16;;;12.57;54.43
60099;BME280;62818;49.394;8.686;2023-05-19T01:47:25;100916.81;;;12.58;54.72
60099;BME280;62818;49.394;8.686;2023-05-19T01:48:25;100912.81;;;12.62;54.39
60099;BME280;62818;49.394;8.686;2023-05-19T01:49:27;100916.13;;;12.64;54.59
60099;BME280;62818;49.394;8.686;2023-05-19T01:50:28;100925.47;;;12.60;54.50
60099;BME280;62818;49.394;8.686;2023-05-19T01:51:28;100918.16;;;12.62;54.55
60099;BME280;62818;49.394;8.686;2023-05-19T01:52:30;100913.63;;;12.62;54.46
60099;BME280;62818;49.394;8.686;2023-05-19T01:53:30;100922.13;;;12.58;54.44
60099;BME280;62818;49.394;8.686;2023-05-19T01:54:31;100922.81;;;12.60;54.46
60099;BME280;62818;49.394;8.686;2023-05-19T01:55:31;100925.69;;;12.50;55.27
60099;BME280;62818;49.394;8.686;2023-05-19T01:56:37;100924.84;;;12.50;54.99
60099;BME280;62818;49.394;8.686;2023-05-19T02:00:56;100933.28;;;12.53;54.49
60099;BME280;62818;49.394;8.686;2023-05-19T02:01:53;100923.34;;;12.55;54.63
60099;BME280;62818;49.394;8.686;2023-05-19T02:05:54;100936.53;;;12.41;55.53
60099;BME280;62818;49.394;8.686;2023-05-19T02:11:02;100927.44;;;12.58;55.14
60099;BME280;62818;49.394;8.686;2023-05-19T02:13:19;100934.66;;;12.49;55.03
60099;BME280;62818;49.394;8.686;2023-05-19T02:15:08;100934.44;;;12.59;54.91
60099;BME280;62818;49.394;8.686;2023-05-19T02:15:48;100928.47;;;12.57;56.01
60099;BME280;62818;49.394;8.686;2023-05-19T02:16:51;100923.59;;;12.38;55.54
60099;BME280;62818;49.394;8.686;2023-05-19T02:17:52;100928.47;;;12.57;55.68
60099;BME280;62818;49.394;8.686;2023-05-19T02:18:54;100922.81;;;12.60;55.49
60099;BME280;62818;49.394;8.686;2023-05-19T02:19:55;100932.50;;;12.45;55.44
60099;BME280;62818;49.394;8.686;2023-05-19T02:20:55;100931.53;;;12.46;55.82
60099;BME280;62818;49.394;8.686;2023-05-19T02:21:56;100927.56;;;12.42;55.60
60099;BME280;62818;49.394;8.686;2023-05-19T02:22:56;100928.03;;;12.45;54.91
60099;BME280;62818;49.394;8.686;2023-05-19T02:23:56;100929.91;;;12.37;55.55
60099;BME280;62818;49.394;8.686;2023-05-19T02:24:57;100926.72;;;12.41;55.15
60099;BME280;62818;49.394;8.686;2023-05-19T02:25:57;100923.22;;;12.41;54.94
60099;BME280;62818;49.394;8.686;2023-05-19T02:26:58;100917.22;;;12.47;54.95
60099;BME280;62818;49.394;8.686;2023-05-19T02:28:02;100921.09;;;12.36;55.67
60099;BME280;62818;49.394;8.686;2023-05-19T02:29:02;100921.84;;;12.53;55.17
60099;BME280;62818;49.394;8.686;2023-05-19T02:30:03;100928.22;;;12.44;55.57
60099;BME280;62818;49.394;8.686;2023-05-19T02:31:04;100916.94;;;12.42;55.69
60099;BME280;62818;49.394;8.686;2023-05-19T02:32:07;100924.78;;;12.35;55.59
60099;BME280;62818;49.394;8.686;2023-05-19T02:33:08;100927.63;;;12.26;56.44
60099;BME280;62818;49.394;8.686;2023-05-19T02:34:10;100924.50;;;12.22;56.22
60099;BME280;62818;49.394;8.686;2023-05-19T02:35:11;100926.59;;;12.35;55.57
60099;BME280;62818;49.394;8.686;2023-05-19T02:36:12;100920.97;;;12.30;55.66
60099;BME280;62818;49.394;8.686;2023-05-19T02:37:13;100920.56;;;12.41;54.65
60099;BME280;62818;49.394;8.686;2023-05-19T02:38:14;100923.22;;;12.41;55.60
60099;BME280;62818;49.394;8.686;2023-05-19T02:39:15;100929.56;;;12.40;54.82
60099;BME280;62818;49.394;8.686;2023-05-19T02:40:16;100921.59;;;12.40;55.09
60099;BME280;62818;49.394;8.686;2023-05-19T02:41:17;100918.75;;;12.41;54.63
60099;BME280;62818;49.394;8.686;2023-05-19T02:42:17;100918.94;;;12.40;54.81
60099;BME280;62818;49.394;8.686;2023-05-19T02:43:18;100922.91;;;12.44;54.72
60099;BME280;62818;49.394;8.686;2023-05-19T02:44:18;100913.25;;;12.43;54.44
60099;BME280;62818;49.394;8.686;2023-05-19T02:45:19;100915.75;;;12.44;54.33
60099;BME280;62818;49.394;8.686;2023-05-19T02:46:19;100917.88;;;12.49;54.86
60099;BME280;62818;49.394;8.686;2023-05-19T02:47:20;100917.88;;;12.49;55.15
60099;BME280;62818;49.394;8.686;2023-05-19T02:48:20;100921.41;;;12.41;55.02
60099;BME280;62818;49.394;8.686;2023-05-19T02:49:20;100927.06;;;12.38;55.15
60099;BME280;62818;49.394;8.686;2023-05-19T02:50:21;100912.56;;;12.49;54.27
60099;BME280;62818;49.394;8.686;2023-05-19T02:51:21;100906.25;;;12.50;54.56
60099;BME280;62818;49.394;8.686;2023-05-19T02:52:21;100913.25;;;12.43;54.99
60099;BME280;62818;49.394;8.686;2023-05-19T02:53:22;100911.63;;;12.34;55.76
60099;BME280;62818;49.394;8.686;2023-05-19T02:54:22;100906.97;;;12.36;55.66
60099;BME280;62818;49.394;8.686;2023-05-19T02:55:23;100909.28;;;12.39;55.92
60099;BME280;62818;49.394;8.686;2023-05-19T02:56:23;100906.16;;;12.35;56.15
60099;BME280;62818;49.394;8.686;2023-05-19T02:57:23;100911.34;;;12.29;56.24
60099;BME280;62818;49.394;8.686;2023-05-19T02:58:25;100906.81;;;12.29;56.14
60099;BME280;62818;49.394;8.686;2023-05-19T02:59:25;100902.72;;;12.27;56.67
60099;BME280;62818;49.394;8.686;2023-05-19T03:00:26;100912.19;;;12.21;56.33
60099;BME280;62818;49.394;8.686;2023-05-19T03:01:26;100910.00;;;12.33;55.59
60099;BME280;62818;49.394;8.686;2023-05-19T03:02:27;100907.47;;;12.39;56.15
60099;BME280;62818;49.394;8.686;2023-05-19T03:03:27;100910.63;;;12.35;56.18
60099;BME280;62818;49.394;8.686;2023-05-19T03:04:27;100904.03;;;12.23;56.16
60099;BME280;62818;49.394;8.686;2023-05-19T03:05:28;100916.66;;;12.29;56.35
60099;BME280;62818;49.394;8.686;2023-05-19T03:06:30;100907.53;;;12.23;56.44
60099;BME280;62818;49.394;8.686;2023-05-19T03:07:31;100907.53;;;12.23;56.47
60099;BME280;62818;49.394;8.686;2023-05-19T03:08:33;100900.06;;;12.19;56.44
60099;BME280;62818;49.394;8.686;2023-05-19T03:09:37;100911.22;;;12.22;56.68
60099;BME280;62818;49.394;8.686;2023-05-19T03:10:38;100908.69;;;12.21;56.70
60099;BME280;62818;49.394;8.686;2023-05-19T03:11:39;100912.00;;;12.23;56.41
60099;BME280;62818;49.394;8.686;2023-05-19T03:12:39;100899.81;;;12.36;56.39
60099;BME280;62818;49.394;8.686;2023-05-19T03:13:40;100900.72;;;12.29;56.52
60099;BME280;62818;49.394;8.686;2023-05-19T03:14:40;100899.34;;;12.33;56.54
60099;BME280;62818;49.394;8.686;2023-05-19T03:15:41;100912.16;;;12.29;56.05
60099;BME280;62818;49.394;8.686;2023-05-19T03:16:42;100906.38;;;12.26;56.05
60099;BME280;62818;49.394;8.686;2023-05-19T03:17:42;100902.97;;;12.40;56.02
60099;BME280;62818;49.394;8.686;2023-05-19T03:18:42;100896.69;;;12.33;55.72
60099;BME280;62818;49.394;8.686;2023-05-19T03:19:43;100903.38;;;12.21;56.53
60099;BME280;62818;49.394;8.686;2023-05-19T03:20:43;100901.50;;;12.29;56.45
60099;BME280;62818;49.394;8.686;2023-05-19T03:21:44;100904.84;;;12.31;55.82
60099;BME280;62818;49.394;8.686;2023-05-19T03:22:45;100902.06;;;12.25;56.92
60099;BME280;62818;49.394;8.686;2023-05-19T03:23:45;100902.41;;;12.22;56.12
60099;BME280;62818;49.394;8.686;2023-05-19T03:24:46;100908.22;;;12.17;56.19
60099;BME280;62818;49.394;8.686;2023-05-19T03:25:49;100912.16;;;12.29;55.78
60099;BME280;62818;49.394;8.686;2023-05-19T03:26:50;100910.63;;;12.35;56.37
60099;BME280;62818;49.394;8.686;2023-05-19T03:27:50;100903.66;;;12.34;56.74
60099;BME280;62818;49.394;8.686;2023-05-19T03:28:51;100907.84;;;12.28;56.23
60099;BME280;62818;49.394;8.686;2023-05-19T03:29:51;100909.81;;;12.34;56.21
60099;BME280;62818;49.394;8.686;2023-05-19T03:30:52;100904.16;;;12.37;56.28
60099;BME280;62818;49.394;8.686;2023-05-19T03:31:53;100909.63;;;12.36;55.69
60099;BME280;62818;49.394;8.686;2023-05-19T03:32:53;100910.78;;;12.41;56.32
60099;BME280;62818;49.394;8.686;2023-05-19T03:33:54;100907.81;;;12.36;56.27
60099;BME280;62818;49.394;8.686;2023-05-19T03:34:54;100901.84;;;12.34;55.89
60099;BME280;62818;49.394;8.686;2023-05-19T03:35:55;100905.38;;;12.19;56.99
60099;BME280;62818;49.394;8.686;2023-05-19T03:36:55;100899.94;;;12.20;56.62
60099;BME280;62818;49.394;8.686;2023-05-19T03:37:56;100901.09;;;12.10;57.17
60099;BME280;62818;49.394;8.686;2023-05-19T03:38:59;100894.09;;;12.25;57.05
60099;BME280;62818;49.394;8.686;2023-05-19T03:39:59;100903.38;;;12.21;56.93
60099;BME280;62818;49.394;8.686;2023-05-19T03:41:00;100903.06;;;12.24;56.65
60099;BME280;62818;49.394;8.686;2023-05-19T03:42:01;100902.97;;;12.09;57.15
60099;BME280;62818;49.394;8.686;2023-05-19T03:43:01;100902.81;;;12.03;57.59
60099;BME280;62818;49.394;8.686;2023-05-19T03:44:02;100902.09;;;12.17;57.19
60099;BME280;62818;49.394;8.686;2023-05-19T03:45:02;100901.94;;;12.10;57.19
60099;BME280;62818;49.394;8.686;2023-05-19T03:46:02;100906.41;;;12.10;57.33
60099;BME280;62818;49.394;8.686;2023-05-19T03:47:03;100908.75;;;12.13;57.08
60099;BME280;62818;49.394;8.686;2023-05-19T03:48:04;100906.09;;;12.13;57.34
60099;BME280;62818;49.394;8.686;2023-05-19T03:49:04;100911.41;;;12.13;56.77
60099;BME280;62818;49.394;8.686;2023-05-19T03:50:05;100905.06;;;12.22;57.03
60099;BME280;62818;49.394;8.686;2023-05-19T03:51:06;100916.09;;;12.03;57.40
60099;BME280;62818;49.394;8.686;2023-05-19T03:52:08;100913.28;;;12.04;57.66
60099;BME280;62818;49.394;8.686;2023-05-19T03:53:08;100914.47;;;11.94;57.63
60099;BME280;62818;49.394;8.686;2023-05-19T03:54:09;100905.94;;;12.06;57.86
60099;BME280;62818;49.394;8.686;2023-05-19T03:55:10;100917.31;;;11.84;58.19
60099;BME280;62818;49.394;8.686;2023-05-19T03:56:10;100918.78;;;11.95;57.96
60099;BME280;62818;49.394;8.686;2023-05-19T03:57:12;100926.22;;;12.07;57.75
60099;BME280;62818;49.394;8.686;2023-05-19T03:58:13;100921.00;;;12.22;57.84
60099;BME280;62818;49.394;8.686;2023-05-19T03:59:14;100933.84;;;12.10;58.32
60099;BME280;62818;49.394;8.686;2023-05-19T04:00:15;100925.09;;;11.85;58.45
60099;BME280;62818;49.394;8.686;2023-05-19T04:01:15;100930.34;;;12.10;57.92
60099;BME280;62818;49.394;8.686;2023-05-19T04:02:16;100928.78;;;11.84;58.58
60099;BME280;62818;49.394;8.686;2023-05-19T04:03:16;100920.16;;;11.82;58.60
60099;BME280;62818;49.394;8.686;2023-05-19T04:04:17;100929.69;;;12.08;57.83
60099;BME280;62818;49.394;8.686;2023-05-19T04:05:17;100929.75;;;11.83;59.03
60099;BME280;62818;49.394;8.686;2023-05-19T04:06:17;100929.78;;;11.75;58.58
60099;BME280;62818;49.394;8.686;2023-05-19T04:07:18;100925.75;;;11.96;58.76
60099;BME280;62818;49.394;8.686;2023-05-19T04:08:19;100937.38;;;11.95;58.29
60099;BME280;62818;49.394;8.686;2023-05-19T04:09:20;100934.94;;;11.85;58.76
60099;BME280;62818;49.394;8.686;2023-05-19T04:10:22;100930.28;;;11.79;59.91
60099;BME280;62818;49.394;8.686;2023-05-19T04:11:23;100930.44;;;11.77;59.23
60099;BME280;62818;49.394;8.686;2023-05-19T04:12:23;100933.13;;;11.69;59.70
60099;BME280;62818;49.394;8.686;2023-05-19T04:13:24;100937.44;;;11.70;59.74
60099;BME280;62818;49.394;8.686;2023-05-19T04:14:24;100932.78;;;11.80;60.40
60099;BME280;62818;49.394;8.686;2023-05-19T04:15:24;100940.72;;;11.64;60.06
60099;BME280;62818;49.394;8.686;2023-05-19T04:16:25;100938.06;;;11.64;59.58
60099;BME280;62818;49.394;8.686;2023-05-19T04:17:25;100943.41;;;11.80;58.98
60099;BME280;62818;49.394;8.686;2023-05-19T04:18:26;100934.44;;;11.73;59.04
60099;BME280;62818;49.394;8.686;2023-05-19T04:19:27;100941.09;;;11.69;59.79
60099;BME280;62818;49.394;8.686;2023-05-19T04:20:27;100932.44;;;11.59;59.96
60099;BME280;62818;49.394;8.686;2023-05-19T04:21:27;100934.44;;;11.73;60.17
60099;BME280;62818;49.394;8.686;2023-05-19T04:22:28;100935.94;;;11.76;59.32
60099;BME280;62818;49.394;8.686;2023-05-19T04:23:28;100937.09;;;11.73;60.46
60099;BME280;62818;49.394;8.686;2023-05-19T04:24:28;100933.94;;;11.78;59.88
60099;BME280;62818;49.394;8.686;2023-05-19T04:25:29;100933.06;;;11.85;58.88
60099;BME280;62818;49.394;8.686;2023-05-19T04:26:29;100947.00;;;11.96;59.00
60099;BME280;62818;49.394;8.686;2023-05-19T04:27:33;100939.44;;;12.23;58.85
60099;BME280;62818;49.394;8.686;2023-05-19T04:28:37;100936.81;;;12.15;59.37
60099;BME280;62818;49.394;8.686;2023-05-19T04:29:41;100936.38;;;11.87;58.97
60099;BME280;62818;49.394;8.686;2023-05-19T04:30:41;100937.25;;;11.80;59.66
60099;BME280;62818;49.394;8.686;2023-05-19T04:31:44;100937.56;;;11.93;59.61
60099;BME280;62818;49.394;8.686;2023-05-19T04:32:45;100937.38;;;12.03;60.32
60099;BME280;62818;49.394;8.686;2023-05-19T04:33:45;100942.38;;;11.89;59.29
60099;BME280;62818;49.394;8.686;2023-05-19T04:34:47;100938.22;;;11.79;60.76
60099;BME280;62818;49.394;8.686;2023-05-19T04:35:47;100945.41;;;11.78;60.45
60099;BME280;62818;49.394;8.686;2023-05-19T04:36:49;100946.03;;;11.88;59.70
60099;BME280;62818;49.394;8.686;2023-05-19T04:37:49;100947.25;;;12.17;60.23
60099;BME280;62818;49.394;8.686;2023-05-19T04:38:53;100946.56;;;12.23;61.34
60099;BME280;62818;49.394;8.686;2023-05-19T04:39:54;100946.22;;;12.26;61.01
60099;BME280;62818;49.394;8.686;2023-05-19T04:40:54;100946.56;;;12.31;61.17
60099;BME280;62818;49.394;8.686;2023-05-19T04:41:55;100948.56;;;12.29;60.42
60099;BME280;62818;49.394;8.686;2023-05-19T04:42:56;100954.75;;;12.13;61.07
60099;BME280;62818;49.394;8.686;2023-05-19T04:43:57;100950.13;;;12.07;61.28
60099;BME280;62818;49.394;8.686;2023-05-19T04:44:57;100946.59;;;12.15;61.68
60099;BME280;62818;49.394;8.686;2023-05-19T04:45:57;100954.38;;;12.24;61.15
60099;BME280;62818;49.394;8.686;2023-05-19T04:46:58;100956.91;;;12.18;61.19
60099;BME280;62818;49.394;8.686;2023-05-19T04:47:59;100959.66;;;12.32;62.47
60099;BME280;62818;49.394;8.686;2023-05-19T04:48:59;100955.56;;;12.22;61.95
60099;BME280;62818;49.394;8.686;2023-05-19T04:50:00;100956.03;;;12.25;62.31
60099;BME280;62818;49.394;8.686;2023-05-19T04:51:00;100957.94;;;12.47;61.72
60099;BME280;62818;49.394;8.686;2023-05-19T04:52:00;100957.94;;;12.47;61.21
60099;BME280;62818;49.394;8.686;2023-05-19T04:53:01;100961.34;;;12.64;62.35
60099;BME280;62818;49.394;8.686;2023-05-19T04:54:01;100954.44;;;12.47;61.59
60099;BME280;62818;49.394;8.686;2023-05-19T04:55:03;100963.19;;;12.25;61.42
60099;BME280;62818;49.394;8.686;2023-05-19T04:56:03;100954.53;;;12.61;62.22
60099;BME280;62818;49.394;8.686;2023-05-19T04:57:04;100954.44;;;12.47;62.20
60099;BME280;62818;49.394;8.686;2023-05-19T04:58:05;100961.72;;;12.22;60.80
60099;BME280;62818;49.394;8.686;2023-05-19T04:59:05;100961.84;;;12.21;62.35
60099;BME280;62818;49.394;8.686;2023-05-19T05:00:06;100960.06;;;12.13;61.29
60099;BME280;62818;49.394;8.686;2023-05-19T05:01:11;100962.22;;;12.18;60.69
60099;BME280;62818;49.394;8.686;2023-05-19T05:02:12;100956.25;;;12.08;61.16
60099;BME280;62818;49.394;8.686;2023-05-19T05:03:13;100960.19;;;12.28;60.79
60099;BME280;62818;49.394;8.686;2023-05-19T05:04:14;100958.91;;;12.16;61.70
60099;BME280;62818;49.394;8.686;2023-05-19T05:05:14;100960.22;;;12.20;61.29
60099;BME280;62818;49.394;8.686;2023-05-19T05:06:14;100957.72;;;12.57;61.54
60099;BME280;62818;49.394;8.686;2023-05-19T05:07:15;100958.44;;;12.51;61.04
60099;BME280;62818;49.394;8.686;2023-05-19T05:08:15;100954.03;;;12.66;61.06
60099;BME280;62818;49.394;8.686;2023-05-19T05:09:21;100959.72;;;12.55;60.67
60099;BME280;62818;49.394;8.686;2023-05-19T05:10:22;100956.41;;;12.53;60.05
60099;BME280;62818;49.394;8.686;2023-05-19T05:11:22;100955.97;;;12.72;60.86
60099;BME280;62818;49.394;8.686;2023-05-19T05:12:23;100964.69;;;12.58;60.68
60099;BME280;62818;49.394;8.686;2023-05-19T05:13:24;100962.22;;;12.56;59.81
60099;BME280;62818;49.394;8.686;2023-05-19T05:14:25;100961.47;;;12.40;60.65
60099;BME280;62818;49.394;8.686;2023-05-19T05:15:26;100958.50;;;12.35;60.62
60099;BME280;62818;49.394;8.686;2023-05-19T05:16:27;100959.47;;;12.42;60.33
60099;BME280;62818;49.394;8.686;2023-05-19T05:17:28;100961.75;;;12.53;60.46
60099;BME280;62818;49.394;8.686;2023-05-19T05:18:29;100952.00;;;12.68;61.05
60099;BME280;62818;49.394;8.686;2023-05-19T05:19:29;100953.00;;;12.67;59.90
60099;BME280;62818;49.394;8.686;2023-05-19T05:20:30;100960.06;;;12.60;60.04
60099;BME280;62818;49.394;8.686;2023-05-19T05:21:31;100949.09;;;12.55;60.97
60099;BME280;62818;49.394;8.686;2023-05-19T05:22:32;100956.63;;;12.74;60.56
60099;BME280;62818;49.394;8.686;2023-05-19T05:23:33;100959.53;;;12.87;60.73
60099;BME280;62818;49.394;8.686;2023-05-19T05:24:34;100956.47;;;12.98;60.64
60099;BME280;62818;49.394;8.686;2023-05-19T05:25:35;100961.59;;;13.00;60.06
60099;BME280;62818;49.394;8.686;2023-05-19T05:26:36;100960.44;;;13.02;59.65
60099;BME280;62818;49.394;8.686;2023-05-19T05:27:36;100961.47;;;12.93;61.01
60099;BME280;62818;49.394;8.686;2023-05-19T05:28:36;100953.25;;;12.80;60.52
60099;BME280;62818;49.394;8.686;2023-05-19T05:29:37;100957.59;;;12.81;61.56
60099;BME280;62818;49.394;8.686;2023-05-19T05:30:37;100954.63;;;12.76;60.69
60099;BME280;62818;49.394;8.686;2023-05-19T05:31:38;100954.59;;;12.84;61.20
60099;BME280;62818;49.394;8.686;2023-05-19T05:32:38;100955.56;;;12.83;62.01
60099;BME280;62818;49.394;8.686;2023-05-19T05:33:39;100957.13;;;13.08;61.48
60099;BME280;62818;49.394;8.686;2023-05-19T05:34:40;100962.44;;;13.08;61.14
60099;BME280;62818;49.394;8.686;2023-05-19T05:35:40;100952.44;;;12.80;61.26
60099;BME280;62818;49.394;8.686;2023-05-19T05:36:41;100956.84;;;12.95;61.56
60099;BME280;62818;49.394;8.686;2023-05-19T05:37:41;100952.91;;;12.83;62.00
60099;BME280;62818;49.394;8.686;2023-05-19T05:38:42;100957.84;;;12.94;61.32
60099;BME280;62818;49.394;8.686;2023-05-19T05:39:42;100951.44;;;13.03;60.95
60099;BME280;62818;49.394;8.686;2023-05-19T05:40:43;100954.38;;;13.16;61.06
60099;BME280;62818;49.394;8.686;2023-05-19T05:41:43;100949.41;;;13.13;61.44